createdAt,value
2022-09-27T00:01:10.499Z,38.70
2022-09-27T00:03:40.598Z,36.55
2022-09-27T00:06:30.099Z,34.65
2022-09-27T00:08:59.640Z,33.67
2022-09-27T00:11:39.926Z,38.47
2022-09-27T00:14:08.806Z,32.88
2022-09-27T00:16:39.336Z,32.58
2022-09-27T00:19:12.013Z,33.25
2022-09-27T00:21:40.200Z,33.25
2022-09-27T00:24:07.642Z,29.85
2022-09-27T00:26:34.919Z,29.63
2022-09-27T00:29:02.393Z,35.08
2022-09-27T00:31:31.687Z,30.65
2022-09-27T00:34:03.725Z,34.63
2022-09-27T00:36:33.413Z,38.60
2022-09-27T00:39:01.866Z,38.53
2022-09-27T00:41:33.810Z,39.63
2022-09-27T00:44:25.624Z,41.22
2022-09-27T00:47:08.201Z,44.35
2022-09-27T00:50:00.615Z,56.17
2022-09-27T00:53:20.220Z,57.10
2022-09-27T00:56:02.446Z,57.20
2022-09-27T00:58:37.175Z,46.10
2022-09-27T01:01:10.745Z,42.63
2022-09-27T01:04:02.042Z,41.05
2022-09-27T01:06:30.092Z,37.40
2022-09-27T01:08:57.309Z,31.42
2022-09-27T01:11:49.593Z,40.30
2022-09-27T01:14:41.622Z,40.28
2022-09-27T01:17:59.574Z,38.13
2022-09-27T01:21:03.179Z,45.50
2022-09-27T01:23:52.306Z,38.63
2022-09-27T01:26:47.766Z,35.10
2022-09-27T01:29:38.131Z,34.15
2022-09-27T01:32:27.694Z,28.27
2022-09-27T01:35:19.867Z,24.80
2022-09-27T01:38:17.827Z,26.05
2022-09-27T01:40:54.303Z,29.67
2022-09-27T01:43:35.178Z,29.73
2022-09-27T01:46:15.402Z,23.98
2022-09-27T01:48:48.594Z,30.60
2022-09-27T01:51:42.785Z,23.80
2022-09-27T01:54:19.162Z,27.58
2022-09-27T01:56:55.281Z,31.13
2022-09-27T01:59:31.901Z,29.75
2022-09-27T02:02:07.404Z,26.58
2022-09-27T02:04:40.916Z,28.05
2022-09-27T02:07:20.539Z,32.70
2022-09-27T02:10:02.247Z,33.00
2022-09-27T02:12:40.089Z,28.70
2022-09-27T02:15:12.642Z,27.60
2022-09-27T02:17:58.438Z,22.55
2022-09-27T02:20:38.233Z,24.90
2022-09-27T02:23:34.064Z,25.90
2022-09-27T02:26:20.506Z,22.85
2022-09-27T02:29:12.956Z,23.02
2022-09-27T02:31:40.718Z,26.40
2022-09-27T02:34:17.290Z,20.83
2022-09-27T02:36:45.053Z,17.20
2022-09-27T02:39:12.517Z,20.85
2022-09-27T02:41:39.766Z,23.75
2022-09-27T02:44:13.718Z,25.67
2022-09-27T02:47:13.416Z,25.70
2022-09-27T02:50:17.188Z,30.95
2022-09-27T02:52:58.591Z,31.02
2022-09-27T02:56:07.276Z,32.42
2022-09-27T02:59:17.990Z,30.30
2022-09-27T03:02:26.715Z,29.63
2022-09-27T03:05:02.930Z,27.35
2022-09-27T03:07:31.011Z,25.30
2022-09-27T03:09:58.575Z,25.52
2022-09-27T03:12:26.372Z,28.20
2022-09-27T03:14:58.627Z,26.55
2022-09-27T03:17:26.703Z,29.08
2022-09-27T03:19:55.358Z,24.60
2022-09-27T03:22:22.750Z,27.48
2022-09-27T03:24:49.991Z,20.75
2022-09-27T03:27:17.309Z,18.88
2022-09-27T03:29:44.830Z,25.75
2022-09-27T03:32:12.047Z,22.98
2022-09-27T03:34:39.308Z,33.80
2022-09-27T03:37:07.214Z,26.05
2022-09-27T03:39:34.947Z,26.10
2022-09-27T03:42:02.243Z,25.42
2022-09-27T03:44:29.703Z,26.75
2022-09-27T03:46:57.451Z,27.38
2022-09-27T03:49:24.880Z,24.42
2022-09-27T03:51:52.339Z,23.88
2022-09-27T03:54:19.556Z,21.92
2022-09-27T03:56:46.773Z,25.42
2022-09-27T03:59:14.880Z,20.67
2022-09-27T04:01:44.697Z,20.27
2022-09-27T04:04:11.991Z,19.33
2022-09-27T04:06:39.659Z,16.70
2022-09-27T04:09:06.879Z,22.70
2022-09-27T04:11:36.751Z,16.35
2022-09-27T04:14:05.752Z,18.83
2022-09-27T04:16:33.960Z,16.77
2022-09-27T04:19:02.326Z,17.35
2022-09-27T04:21:30.108Z,17.58
2022-09-27T04:23:57.420Z,17.63
2022-09-27T04:26:26.351Z,18.38
2022-09-27T04:28:54.886Z,15.73
2022-09-27T04:31:22.786Z,15.63
2022-09-27T04:33:50.105Z,16.33
2022-09-27T04:36:29.483Z,14.52
2022-09-27T04:39:02.579Z,15.43
2022-09-27T04:41:30.859Z,17.60
2022-09-27T04:44:01.291Z,15.82
2022-09-27T04:46:31.816Z,16.35
2022-09-27T04:49:03.109Z,16.60
2022-09-27T04:51:30.399Z,18.45
2022-09-27T04:53:58.338Z,17.98
2022-09-27T04:56:26.382Z,12.43
2022-09-27T04:58:54.065Z,13.70
2022-09-27T05:01:21.663Z,11.18
2022-09-27T05:03:49.382Z,15.30
2022-09-27T05:06:16.576Z,15.82
2022-09-27T05:08:43.726Z,12.98
2022-09-27T05:11:14.161Z,11.57
2022-09-27T05:13:41.326Z,13.77
2022-09-27T05:16:08.793Z,12.25
2022-09-27T05:18:37.252Z,16.23
2022-09-27T05:21:04.609Z,14.15
2022-09-27T05:23:31.904Z,14.25
2022-09-27T05:26:04.651Z,21.42
2022-09-27T05:28:32.411Z,24.42
2022-09-27T05:30:59.668Z,16.85
2022-09-27T05:33:27.895Z,14.43
2022-09-27T05:35:57.736Z,11.35
2022-09-27T05:38:26.232Z,12.98
2022-09-27T05:40:53.831Z,13.18
2022-09-27T05:43:21.741Z,14.38
2022-09-27T05:45:49.198Z,12.18
2022-09-27T05:48:16.985Z,11.55
2022-09-27T05:50:44.897Z,12.88
2022-09-27T05:53:13.608Z,17.00
2022-09-27T05:55:41.011Z,30.45
2022-09-27T05:58:11.480Z,13.35
2022-09-27T06:00:39.426Z,15.48
2022-09-27T06:03:08.037Z,13.65
2022-09-27T06:05:38.546Z,12.52
2022-09-27T06:08:13.203Z,13.40
2022-09-27T06:10:41.834Z,14.75
2022-09-27T06:13:14.244Z,13.35
2022-09-27T06:15:45.402Z,13.25
2022-09-27T06:18:18.739Z,11.63
2022-09-27T06:20:46.326Z,12.15
2022-09-27T06:23:23.679Z,15.45
2022-09-27T06:25:53.251Z,12.82
2022-09-27T06:28:22.136Z,13.93
2022-09-27T06:30:50.847Z,13.75
2022-09-27T06:33:20.700Z,15.05
2022-09-27T06:35:50.113Z,14.77
2022-09-27T06:38:18.788Z,12.13
2022-09-27T06:40:47.120Z,10.93
2022-09-27T06:43:17.601Z,10.48
2022-09-27T06:45:44.927Z,10.25
2022-09-27T06:48:16.157Z,11.32
2022-09-27T06:50:46.020Z,10.90
2022-09-27T06:53:17.076Z,9.02
2022-09-27T06:55:44.476Z,12.48
2022-09-27T06:58:31.073Z,12.23
2022-09-27T07:00:58.971Z,10.25
2022-09-27T07:03:38.883Z,10.07
2022-09-27T07:06:17.731Z,11.27
2022-09-27T07:08:45.070Z,9.20
2022-09-27T07:11:12.480Z,8.93
2022-09-27T07:13:42.993Z,9.18
2022-09-27T07:16:14.756Z,9.82
2022-09-27T07:18:43.510Z,31.15
2022-09-27T07:21:12.697Z,20.90
2022-09-27T07:23:40.190Z,17.08
2022-09-27T07:26:10.549Z,8.90
2022-09-27T07:28:38.052Z,8.73
2022-09-27T07:31:06.802Z,7.90
2022-09-27T07:33:34.814Z,7.93
2022-09-27T07:36:09.326Z,8.10
2022-09-27T07:38:37.502Z,6.57
2022-09-27T07:41:13.361Z,5.72
2022-09-27T07:43:45.150Z,5.50
2022-09-27T07:46:13.723Z,5.03
2022-09-27T07:48:41.377Z,5.68
2022-09-27T07:51:15.667Z,6.15
2022-09-27T07:53:43.024Z,6.80
2022-09-27T07:56:10.437Z,6.57
2022-09-27T07:58:37.700Z,8.30
2022-09-27T08:01:04.966Z,6.03
2022-09-27T08:03:32.584Z,5.88
2022-09-27T08:06:04.448Z,6.05
2022-09-27T08:08:32.138Z,5.95
2022-09-27T08:10:59.523Z,6.65
2022-09-27T08:13:26.783Z,7.78
2022-09-27T08:15:54.033Z,5.10
2022-09-27T08:18:22.258Z,5.30
2022-09-27T08:20:49.506Z,7.30
2022-09-27T08:23:16.888Z,4.63
2022-09-27T08:25:44.528Z,7.28
2022-09-27T08:28:11.833Z,22.55
2022-09-27T08:30:39.247Z,9.93
2022-09-27T08:33:06.883Z,13.82
2022-09-27T08:35:34.305Z,5.53
2022-09-27T08:38:05.119Z,6.50
2022-09-27T08:40:43.762Z,7.03
2022-09-27T08:43:38.074Z,6.28
2022-09-27T08:46:33.237Z,7.03
2022-09-27T08:49:13.700Z,5.75
2022-09-27T08:51:46.425Z,6.45
2022-09-27T08:54:30.238Z,6.78
2022-09-27T08:57:12.813Z,5.55
2022-09-27T08:59:52.732Z,5.55
2022-09-27T09:02:27.495Z,7.80
2022-09-27T09:05:07.282Z,6.75
2022-09-27T09:08:21.843Z,7.30
2022-09-27T09:11:25.109Z,5.47
2022-09-27T09:14:01.623Z,5.85
2022-09-27T09:17:09.121Z,5.65
2022-09-27T09:20:16.986Z,5.50
2022-09-27T09:23:10.910Z,5.47
2022-09-27T09:26:08.074Z,5.43
2022-09-27T09:29:06.970Z,4.22
2022-09-27T09:31:41.304Z,3.83
2022-09-27T09:34:41.506Z,4.00
2022-09-27T09:37:24.851Z,3.75
2022-09-27T09:40:04.231Z,4.75
2022-09-27T09:43:01.747Z,3.90
2022-09-27T09:45:35.894Z,4.47
2022-09-27T09:48:19.474Z,3.40
2022-09-27T09:50:56.617Z,4.03
2022-09-27T09:53:42.746Z,2.92
2022-09-27T09:56:33.188Z,3.45
2022-09-27T09:59:11.200Z,3.45
2022-09-27T10:01:44.996Z,3.20
2022-09-27T10:04:32.867Z,4.32
2022-09-27T10:07:01.685Z,4.18
2022-09-27T10:09:29.702Z,5.07
2022-09-27T10:11:57.334Z,3.78
2022-09-27T10:14:28.293Z,5.03
2022-09-27T10:17:06.549Z,3.78
2022-09-27T10:19:38.668Z,4.55
2022-09-27T10:22:16.069Z,5.13
2022-09-27T10:24:59.779Z,4.65
2022-09-27T10:27:28.376Z,3.42
2022-09-27T10:29:59.840Z,3.83
2022-09-27T10:32:35.855Z,2.90
2022-09-27T10:35:35.237Z,3.92
2022-09-27T10:38:32.124Z,4.05
2022-09-27T10:41:18.162Z,3.80
2022-09-27T10:43:45.448Z,4.03
2022-09-27T10:46:31.772Z,3.45
2022-09-27T10:49:31.314Z,4.32
2022-09-27T10:52:06.533Z,3.88
2022-09-27T10:54:39.773Z,4.78
2022-09-27T10:57:21.545Z,4.22
2022-09-27T10:59:57.900Z,3.42
2022-09-27T11:02:37.906Z,3.28
2022-09-27T11:05:29.813Z,3.90
2022-09-27T11:08:03.124Z,3.95
2022-09-27T11:10:37.727Z,3.65
2022-09-27T11:13:18.397Z,4.03
2022-09-27T11:16:29.993Z,2.95
2022-09-27T11:19:57.161Z,3.25
2022-09-27T11:22:55.077Z,3.00
2022-09-27T11:25:49.742Z,4.53
2022-09-27T11:28:49.001Z,3.75
2022-09-27T11:31:40.340Z,3.67
2022-09-27T11:34:41.551Z,3.20
2022-09-27T11:37:36.969Z,3.33
2022-09-27T11:40:27.251Z,3.00
2022-09-27T11:43:16.497Z,4.00
2022-09-27T11:46:38.726Z,5.70
2022-09-27T11:49:28.286Z,4.90
2022-09-27T11:52:51.546Z,3.33
2022-09-27T11:55:52.656Z,3.83
2022-09-27T11:58:44.817Z,3.00
2022-09-27T12:01:55.881Z,4.10
2022-09-27T12:05:01.968Z,3.35
2022-09-27T12:08:00.766Z,4.18
2022-09-27T12:10:28.034Z,4.72
2022-09-27T12:13:04.837Z,4.05
2022-09-27T12:15:41.113Z,3.88
2022-09-27T12:18:31.705Z,4.30
2022-09-27T12:21:03.309Z,5.65
2022-09-27T12:23:48.950Z,4.78
2022-09-27T12:26:25.564Z,4.15
2022-09-27T12:28:58.213Z,3.63
2022-09-27T12:31:47.247Z,7.93
2022-09-27T12:34:39.793Z,5.07
2022-09-27T12:37:19.937Z,5.70
2022-09-27T12:39:55.757Z,4.95
2022-09-27T12:42:46.716Z,4.82
2022-09-27T12:45:16.334Z,8.90
2022-09-27T12:48:25.708Z,5.43
2022-09-27T12:51:12.026Z,6.05
2022-09-27T12:54:13.139Z,5.78
2022-09-27T12:57:18.296Z,6.57
2022-09-27T13:00:04.834Z,8.43
2022-09-27T13:03:14.853Z,14.77
2022-09-27T13:06:20.693Z,7.43
2022-09-27T13:09:18.070Z,5.97
2022-09-27T13:11:56.330Z,5.88
2022-09-27T13:14:30.321Z,4.05
2022-09-27T13:17:00.729Z,5.50
2022-09-27T13:19:42.662Z,4.55
2022-09-27T13:22:27.017Z,5.00
2022-09-27T13:24:55.448Z,5.72
2022-09-27T13:27:23.236Z,7.82
2022-09-27T13:29:51.806Z,4.95
2022-09-27T13:32:21.454Z,5.57
2022-09-27T13:34:56.734Z,4.78
2022-09-27T13:37:45.779Z,4.40
2022-09-27T13:40:16.416Z,4.45
2022-09-27T13:42:49.461Z,5.15
2022-09-27T13:45:28.313Z,4.82
2022-09-27T13:47:59.477Z,8.10
2022-09-27T13:50:56.830Z,8.45
2022-09-27T13:53:40.114Z,9.07
2022-09-27T13:56:36.433Z,9.55
2022-09-27T13:59:10.345Z,8.75
2022-09-27T14:01:51.525Z,6.70
2022-09-27T14:04:27.768Z,5.82
2022-09-27T14:07:02.861Z,7.40
2022-09-27T14:09:40.459Z,6.50
2022-09-27T14:12:19.426Z,6.63
2022-09-27T14:14:50.072Z,6.05
2022-09-27T14:17:17.861Z,7.53
2022-09-27T14:19:46.470Z,7.30
2022-09-27T14:22:21.696Z,6.63
2022-09-27T14:24:55.440Z,4.20
2022-09-27T14:27:36.130Z,3.20
2022-09-27T14:30:29.209Z,7.97
2022-09-27T14:33:01.762Z,8.15
2022-09-27T14:35:51.045Z,3.55
2022-09-27T14:38:38.768Z,3.50
2022-09-27T14:41:09.071Z,2.42
2022-09-27T14:43:44.550Z,3.95
2022-09-27T14:46:34.196Z,3.22
2022-09-27T14:49:23.749Z,4.88
2022-09-27T14:51:56.315Z,5.88
2022-09-27T14:54:31.518Z,3.13
2022-09-27T14:57:00.376Z,5.25
2022-09-27T14:59:34.911Z,5.22
2022-09-27T15:02:17.672Z,7.22
2022-09-27T15:04:49.136Z,8.48
2022-09-27T15:07:17.267Z,7.75
2022-09-27T15:09:45.850Z,7.88
2022-09-27T15:12:24.960Z,8.32
2022-09-27T15:14:55.530Z,7.55
2022-09-27T15:17:22.952Z,17.45
2022-09-27T15:20:18.783Z,8.00
2022-09-27T15:22:47.493Z,6.65
2022-09-27T15:25:25.154Z,7.53
2022-09-27T15:27:56.560Z,6.85
2022-09-27T15:30:35.726Z,8.05
2022-09-27T15:33:04.623Z,7.47
2022-09-27T15:35:36.011Z,11.75
2022-09-27T15:38:33.324Z,9.63
2022-09-27T15:41:09.757Z,9.32
2022-09-27T15:43:50.221Z,10.07
2022-09-27T15:46:42.989Z,13.10
2022-09-27T15:49:31.506Z,14.50
2022-09-27T15:52:02.612Z,16.13
2022-09-27T15:54:36.468Z,15.43
2022-09-27T15:57:06.181Z,15.35
2022-09-27T15:59:36.478Z,13.85
2022-09-27T16:02:16.566Z,15.35
2022-09-27T16:04:45.024Z,12.18
2022-09-27T16:07:17.883Z,15.63
2022-09-27T16:09:46.909Z,15.38
2022-09-27T16:12:14.103Z,18.25
2022-09-27T16:14:41.313Z,16.25
2022-09-27T16:17:11.031Z,19.38
2022-09-27T16:19:39.466Z,19.83
2022-09-27T16:22:06.957Z,22.58
2022-09-27T16:24:40.505Z,20.67
2022-09-27T16:27:07.852Z,24.08
2022-09-27T16:29:35.127Z,22.90
2022-09-27T16:32:02.568Z,20.55
2022-09-27T16:34:30.016Z,22.23
2022-09-27T16:36:59.585Z,17.88
2022-09-27T16:39:29.930Z,20.05
2022-09-27T16:41:57.137Z,18.10
2022-09-27T16:44:24.451Z,17.70
2022-09-27T16:46:52.027Z,20.20
2022-09-27T16:49:37.629Z,21.55
2022-09-27T16:52:05.030Z,23.70
2022-09-27T16:54:32.438Z,23.45
2022-09-27T16:57:00.217Z,21.80
2022-09-27T16:59:28.078Z,22.13
2022-09-27T17:01:58.423Z,20.15
2022-09-27T17:04:28.428Z,21.05
2022-09-27T17:06:59.882Z,19.00
2022-09-27T17:09:27.453Z,17.52
2022-09-27T17:11:56.435Z,22.02
2022-09-27T17:14:24.000Z,22.20
2022-09-27T17:16:52.085Z,21.80
2022-09-27T17:19:19.853Z,21.50
2022-09-27T17:21:47.716Z,21.45
2022-09-27T17:24:15.517Z,21.48
2022-09-27T17:26:44.657Z,26.20
2022-09-27T17:29:13.543Z,29.65
2022-09-27T17:31:42.836Z,25.50
2022-09-27T17:34:13.715Z,26.33
2022-09-27T17:36:48.171Z,25.92
2022-09-27T17:39:19.351Z,26.70
2022-09-27T17:41:48.994Z,37.17
2022-09-27T17:44:21.290Z,31.38
2022-09-27T17:47:08.834Z,30.45
2022-09-27T17:49:54.827Z,31.25
2022-09-27T17:52:23.798Z,25.80
2022-09-27T17:54:54.489Z,25.42
2022-09-27T17:57:22.571Z,33.58
2022-09-27T17:59:51.160Z,31.10
2022-09-27T18:02:18.753Z,36.53
2022-09-27T18:04:46.342Z,29.70
2022-09-27T18:07:14.110Z,27.08
2022-09-27T18:09:42.075Z,33.53
2022-09-27T18:12:10.151Z,34.88
2022-09-27T18:14:37.522Z,37.15
2022-09-27T18:17:05.100Z,34.47
2022-09-27T18:19:32.413Z,38.17
2022-09-27T18:22:00.943Z,35.88
2022-09-27T18:24:28.716Z,34.35
2022-09-27T18:26:57.422Z,32.13
2022-09-27T18:29:24.949Z,40.15
2022-09-27T18:31:52.803Z,31.90
2022-09-27T18:34:20.389Z,27.13
2022-09-27T18:36:48.151Z,26.95
2022-09-27T18:39:19.812Z,24.63
2022-09-27T18:41:51.223Z,26.63
2022-09-27T18:44:19.828Z,25.73
2022-09-27T18:46:48.031Z,20.80
2022-09-27T18:49:17.639Z,21.27
2022-09-27T18:51:47.294Z,24.58
2022-09-27T18:54:19.424Z,20.90
2022-09-27T18:56:49.755Z,27.42
2022-09-27T18:59:18.187Z,23.23
2022-09-27T19:01:47.137Z,21.20
2022-09-27T19:04:27.086Z,21.27
2022-09-27T19:06:57.091Z,25.17
2022-09-27T19:09:27.052Z,21.15
2022-09-27T19:11:54.849Z,28.77
2022-09-27T19:14:23.812Z,22.80
2022-09-27T19:16:51.919Z,22.58
2022-09-27T19:19:20.572Z,18.52
2022-09-27T19:21:49.222Z,19.88
2022-09-27T19:24:19.060Z,18.27
2022-09-27T19:26:46.678Z,19.10
2022-09-27T19:29:14.992Z,18.95
2022-09-27T19:31:42.992Z,19.75
2022-09-27T19:34:11.440Z,19.60
2022-09-27T19:36:38.863Z,15.68
2022-09-27T19:39:06.714Z,19.42
2022-09-27T19:41:34.123Z,16.83
2022-09-27T19:44:01.951Z,16.52
2022-09-27T19:46:29.634Z,19.60
2022-09-27T19:48:57.125Z,19.48
2022-09-27T19:51:27.169Z,17.42
2022-09-27T19:53:55.604Z,17.80
2022-09-27T19:56:24.780Z,17.25
2022-09-27T19:58:52.612Z,16.67
2022-09-27T20:01:23.586Z,21.60
2022-09-27T20:03:55.822Z,15.27
2022-09-27T20:06:23.748Z,14.93
2022-09-27T20:08:52.696Z,16.50
2022-09-27T20:11:23.431Z,16.02
2022-09-27T20:13:53.223Z,19.10
2022-09-27T20:16:24.540Z,17.85
2022-09-27T20:18:58.171Z,20.65
2022-09-27T20:21:30.061Z,16.67
2022-09-27T20:23:58.307Z,16.00
2022-09-27T20:26:28.568Z,15.93
2022-09-27T20:28:59.254Z,19.67
2022-09-27T20:32:02.890Z,28.45
2022-09-27T20:34:28.903Z,25.40
2022-09-27T20:36:56.167Z,22.17
2022-09-27T20:39:24.411Z,20.45
2022-09-27T20:41:54.872Z,21.30
2022-09-27T20:44:22.227Z,20.27
2022-09-27T20:46:49.555Z,21.33
2022-09-27T20:49:19.447Z,22.40
2022-09-27T20:51:51.551Z,21.38
2022-09-27T20:54:19.166Z,23.13
2022-09-27T20:56:48.722Z,20.85
2022-09-27T20:59:20.402Z,20.35
2022-09-27T21:01:51.401Z,20.17
2022-09-27T21:04:21.524Z,21.40
2022-09-27T21:06:49.231Z,20.75
2022-09-27T21:09:20.027Z,21.40
2022-09-27T21:11:49.293Z,24.27
2022-09-27T21:14:16.863Z,23.83
2022-09-27T21:16:44.576Z,24.58
2022-09-27T21:19:12.037Z,27.02
2022-09-27T21:21:39.468Z,26.05
2022-09-27T21:24:07.026Z,24.52
2022-09-27T21:26:35.162Z,24.05
2022-09-27T21:29:09.015Z,25.63
2022-09-27T21:31:38.167Z,25.08
2022-09-27T21:34:06.591Z,26.45
2022-09-27T21:36:38.807Z,24.52
2022-09-27T21:39:09.074Z,26.63
2022-09-27T21:41:39.085Z,29.30
2022-09-27T21:44:10.653Z,24.58
2022-09-27T21:46:41.808Z,24.65
2022-09-27T21:49:11.204Z,24.40
2022-09-27T21:51:42.448Z,23.05
2022-09-27T21:54:14.767Z,21.50
2022-09-27T21:56:44.573Z,19.80
2022-09-27T21:59:15.643Z,19.65
2022-09-27T22:01:46.088Z,22.55
2022-09-27T22:04:19.634Z,20.80
2022-09-27T22:06:47.456Z,21.55
2022-09-27T22:09:17.353Z,18.45
2022-09-27T22:11:47.636Z,21.50
2022-09-27T22:14:18.943Z,23.08
2022-09-27T22:16:47.798Z,20.67
2022-09-27T22:19:16.542Z,19.90
2022-09-27T22:21:44.150Z,20.55
2022-09-27T22:24:17.972Z,20.30
2022-09-27T22:26:53.444Z,21.52
2022-09-27T22:29:21.326Z,19.63
2022-09-27T22:31:48.921Z,20.55
2022-09-27T22:34:20.704Z,20.90
2022-09-27T22:36:47.975Z,21.67
2022-09-27T22:39:15.488Z,19.10
2022-09-27T22:41:42.700Z,19.73
2022-09-27T22:44:09.895Z,21.50
2022-09-27T22:46:37.394Z,25.90
2022-09-27T22:49:04.683Z,22.52
2022-09-27T22:51:31.958Z,20.83
2022-09-27T22:53:59.392Z,17.55
2022-09-27T22:56:26.651Z,19.88
2022-09-27T22:58:53.997Z,20.90
2022-09-27T23:01:24.886Z,20.85
2022-09-27T23:03:54.336Z,19.52
2022-09-27T23:06:23.201Z,19.02
2022-09-27T23:08:53.700Z,22.38
2022-09-27T23:11:23.315Z,22.77
2022-09-27T23:13:52.104Z,19.80
2022-09-27T23:16:24.780Z,20.77
2022-09-27T23:18:57.027Z,17.17
2022-09-27T23:21:26.415Z,19.27
2022-09-27T23:23:59.899Z,18.42
2022-09-27T23:26:29.310Z,22.10
2022-09-27T23:28:59.994Z,24.65
2022-09-27T23:31:31.440Z,22.50
2022-09-27T23:34:03.542Z,20.27
2022-09-27T23:36:31.032Z,19.95
2022-09-27T23:39:00.986Z,20.27
2022-09-27T23:41:28.656Z,22.73
2022-09-27T23:43:57.646Z,19.58
2022-09-27T23:46:25.323Z,18.30
2022-09-27T23:48:55.593Z,18.10
2022-09-27T23:51:22.789Z,19.00
2022-09-27T23:53:50.134Z,16.23
2022-09-27T23:56:17.757Z,16.23
2022-09-27T23:58:46.393Z,16.38
